Estación Meteorológica Peña el Pijo (Robertgarden) [ 09/24/17 17:45:57 CEST ]

Fecha Hora Presion(HPa) Temp (°C) Humedad % Rocio (°C) Viento ( m/s) Direccion Lluvia 1Hora(mm) Lluvia 24H(mm) LLuvia Total(mm)
2017-Aug-26 01:01:37 1013.200 18.1 73 13.2       0.51 1439.52
2017-Aug-26 02:01:27 1012.800 17.5 73 12.6       0.51 1439.52
2017-Aug-26 03:01:45 1012.700 17.4 75 12.9       0.51 1439.52
2017-Aug-26 04:01:37 1012.200 17.8 71 12.5       0.51 1439.52
2017-Aug-26 05:01:41 1012.000 17.7 68 11.7       0.51 1439.52
2017-Aug-26 06:01:38 1011.400 17.4 70 11.9       0.51 1439.52
2017-Aug-26 07:01:38 1011.200 16.4 71 11.2       0.51 1439.52
2017-Aug-26 08:01:39 1011.400 14.9 74 10.3       0.51 1439.52
2017-Aug-26 09:01:28 1011.600 16.6 73 11.7       0.51 1439.52
2017-Aug-26 10:01:57 1011.400 23.4 60 15.2       0.51 1439.52
2017-Aug-26 11:01:48 1011.300 30.6 40 15.5       0.51 1439.52
2017-Aug-26 12:02:03 1011.500 35.3 29 14.5       0.51 1439.52
2017-Aug-26 13:02:02 1011.100 32.5 26 10.3       0.51 1439.52
2017-Aug-26 14:01:34 1011.000 35.9 21 10.1       0.51 1439.52
2017-Aug-26 15:01:54 1010.600 35.4 30 15.2 1.3 SSW   0.51 1439.52
2017-Aug-26 16:01:46 1010.500 33.6 28 12.5       0.51 1439.52
2017-Aug-26 17:01:47 1010.300 29.3 37 13.0       0.51 1439.52
2017-Aug-26 18:02:02 1013.500 20.5 62 13.0     2.59 2.59 1442.11
2017-Aug-26 19:01:50 1011.900 16.9 79 13.2     5.69 11.39 1450.91
2017-Aug-26 20:01:56 1011.700 17.9 80 14.4       11.39 1450.91
2017-Aug-26 21:01:48 1011.400 17.4 82 14.3       11.39 1450.91
2017-Aug-26 22:01:37 1012.700 17.6 84 14.9       11.39 1450.91
2017-Aug-26 23:01:44 1013.200 18.9 82 15.8       11.39 1450.91

Temperatura Máxima:35°    Temperatura Mínima:14°
Presión Máxima:1013.500 Hpa    Presión Mínima:1010.300 Hpa


Volver